sensor_id;sensor_type;location;lat;lon;timestamp;P1;durP1;ratioP1;P2;durP2;ratioP2
8401;SDS011;4238;48.404;9.498;2023-01-05T00:01:24;0.50;;;0.50;;
8401;SDS011;4238;48.404;9.498;2023-01-05T00:03:51;0.67;;;0.67;;
8401;SDS011;4238;48.404;9.498;2023-01-05T00:06:18;0.50;;;0.50;;
8401;SDS011;4238;48.404;9.498;2023-01-05T00:08:45;0.40;;;0.37;;
8401;SDS011;4238;48.404;9.498;2023-01-05T00:11:13;0.30;;;0.30;;
8401;SDS011;4238;48.404;9.498;2023-01-05T00:13:59;1.20;;;0.80;;
8401;SDS011;4238;48.404;9.498;2023-01-05T00:16:44;0.40;;;0.40;;
8401;SDS011;4238;48.404;9.498;2023-01-05T00:19:28;0.10;;;0.10;;
8401;SDS011;4238;48.404;9.498;2023-01-05T00:22:16;0.10;;;0.10;;
8401;SDS011;4238;48.404;9.498;2023-01-05T00:24:56;0.37;;;0.37;;
8401;SDS011;4238;48.404;9.498;2023-01-05T00:27:24;0.17;;;0.17;;
8401;SDS011;4238;48.404;9.498;2023-01-05T00:29:52;0.13;;;0.13;;
8401;SDS011;4238;48.404;9.498;2023-01-05T00:32:19;0.10;;;0.10;;
8401;SDS011;4238;48.404;9.498;2023-01-05T00:34:46;0.20;;;0.20;;
8401;SDS011;4238;48.404;9.498;2023-01-05T00:37:14;0.30;;;0.30;;
8401;SDS011;4238;48.404;9.498;2023-01-05T00:39:41;0.30;;;0.17;;
8401;SDS011;4238;48.404;9.498;2023-01-05T00:42:08;0.30;;;0.30;;
8401;SDS011;4238;48.404;9.498;2023-01-05T00:44:35;0.17;;;0.17;;
8401;SDS011;4238;48.404;9.498;2023-01-05T00:47:03;0.30;;;0.30;;
8401;SDS011;4238;48.404;9.498;2023-01-05T00:49:30;0.60;;;0.60;;
8401;SDS011;4238;48.404;9.498;2023-01-05T00:51:57;0.20;;;0.20;;
8401;SDS011;4238;48.404;9.498;2023-01-05T00:54:24;0.93;;;0.43;;
8401;SDS011;4238;48.404;9.498;2023-01-05T00:56:51;1.00;;;0.23;;
8401;SDS011;4238;48.404;9.498;2023-01-05T00:59:18;0.23;;;0.20;;
8401;SDS011;4238;48.404;9.498;2023-01-05T01:01:45;0.43;;;0.43;;
8401;SDS011;4238;48.404;9.498;2023-01-05T01:04:14;0.27;;;0.27;;
8401;SDS011;4238;48.404;9.498;2023-01-05T01:06:42;0.93;;;0.30;;
8401;SDS011;4238;48.404;9.498;2023-01-05T01:09:09;0.23;;;0.20;;
8401;SDS011;4238;48.404;9.498;2023-01-05T01:11:36;0.20;;;0.20;;
8401;SDS011;4238;48.404;9.498;2023-01-05T01:14:03;0.77;;;0.40;;
8401;SDS011;4238;48.404;9.498;2023-01-05T01:16:32;0.33;;;0.33;;
8401;SDS011;4238;48.404;9.498;2023-01-05T01:18:58;0.13;;;0.13;;
8401;SDS011;4238;48.404;9.498;2023-01-05T01:21:27;0.20;;;0.20;;
8401;SDS011;4238;48.404;9.498;2023-01-05T01:23:54;0.20;;;0.20;;
8401;SDS011;4238;48.404;9.498;2023-01-05T01:26:23;0.10;;;0.10;;
8401;SDS011;4238;48.404;9.498;2023-01-05T01:28:50;0.30;;;0.30;;
8401;SDS011;4238;48.404;9.498;2023-01-05T01:31:17;1.27;;;0.33;;
8401;SDS011;4238;48.404;9.498;2023-01-05T01:33:44;0.77;;;0.30;;
8401;SDS011;4238;48.404;9.498;2023-01-05T01:36:11;0.60;;;0.37;;
8401;SDS011;4238;48.404;9.498;2023-01-05T01:38:39;0.77;;;0.30;;
8401;SDS011;4238;48.404;9.498;2023-01-05T01:41:06;0.53;;;0.53;;
8401;SDS011;4238;48.404;9.498;2023-01-05T01:43:40;0.30;;;0.30;;
8401;SDS011;4238;48.404;9.498;2023-01-05T01:46:10;1.17;;;0.33;;
8401;SDS011;4238;48.404;9.498;2023-01-05T01:48:38;0.30;;;0.30;;
8401;SDS011;4238;48.404;9.498;2023-01-05T01:51:10;0.50;;;0.50;;
8401;SDS011;4238;48.404;9.498;2023-01-05T01:53:42;0.57;;;0.57;;
8401;SDS011;4238;48.404;9.498;2023-01-05T01:56:12;0.93;;;0.63;;
8401;SDS011;4238;48.404;9.498;2023-01-05T01:58:43;0.90;;;0.90;;
8401;SDS011;4238;48.404;9.498;2023-01-05T02:01:10;2.37;;;1.97;;
8401;SDS011;4238;48.404;9.498;2023-01-05T02:03:37;0.97;;;0.80;;
8401;SDS011;4238;48.404;9.498;2023-01-05T02:06:05;0.10;;;0.10;;
8401;SDS011;4238;48.404;9.498;2023-01-05T02:08:33;0.17;;;0.17;;
8401;SDS011;4238;48.404;9.498;2023-01-05T02:11:04;0.37;;;0.30;;
8401;SDS011;4238;48.404;9.498;2023-01-05T02:13:54;0.83;;;0.30;;
8401;SDS011;4238;48.404;9.498;2023-01-05T02:16:34;0.20;;;0.20;;
8401;SDS011;4238;48.404;9.498;2023-01-05T02:22:20;0.20;;;0.20;;
8401;SDS011;4238;48.404;9.498;2023-01-05T02:28:20;0.10;;;0.10;;
8401;SDS011;4238;48.404;9.498;2023-01-05T02:31:05;0.10;;;0.10;;
8401;SDS011;4238;48.404;9.498;2023-01-05T02:33:46;0.20;;;0.20;;
8401;SDS011;4238;48.404;9.498;2023-01-05T02:36:27;0.13;;;0.13;;
8401;SDS011;4238;48.404;9.498;2023-01-05T02:39:00;0.30;;;0.23;;
8401;SDS011;4238;48.404;9.498;2023-01-05T02:41:34;0.30;;;0.30;;
8401;SDS011;4238;48.404;9.498;2023-01-05T02:44:05;0.73;;;0.73;;
8401;SDS011;4238;48.404;9.498;2023-01-05T02:46:35;0.30;;;0.30;;
8401;SDS011;4238;48.404;9.498;2023-01-05T02:49:02;0.27;;;0.20;;
8401;SDS011;4238;48.404;9.498;2023-01-05T02:51:31;0.50;;;0.27;;
8401;SDS011;4238;48.404;9.498;2023-01-05T02:54:02;0.17;;;0.17;;
8401;SDS011;4238;48.404;9.498;2023-01-05T02:56:35;0.00;;;0.00;;
8401;SDS011;4238;48.404;9.498;2023-01-05T02:59:08;0.00;;;0.00;;
8401;SDS011;4238;48.404;9.498;2023-01-05T03:01:41;0.00;;;0.00;;
8401;SDS011;4238;48.404;9.498;2023-01-05T03:04:14;0.00;;;0.00;;
8401;SDS011;4238;48.404;9.498;2023-01-05T03:06:46;0.10;;;0.10;;
8401;SDS011;4238;48.404;9.498;2023-01-05T03:09:20;0.43;;;0.10;;
8401;SDS011;4238;48.404;9.498;2023-01-05T03:11:52;0.00;;;0.00;;
8401;SDS011;4238;48.404;9.498;2023-01-05T03:14:41;0.30;;;0.30;;
8401;SDS011;4238;48.404;9.498;2023-01-05T03:17:14;0.20;;;0.10;;
8401;SDS011;4238;48.404;9.498;2023-01-05T03:19:47;0.00;;;0.00;;
8401;SDS011;4238;48.404;9.498;2023-01-05T03:22:16;0.10;;;0.10;;
8401;SDS011;4238;48.404;9.498;2023-01-05T03:25:03;0.00;;;0.00;;
8401;SDS011;4238;48.404;9.498;2023-01-05T03:27:50;0.00;;;0.00;;
8401;SDS011;4238;48.404;9.498;2023-01-05T03:30:38;0.10;;;0.10;;
8401;SDS011;4238;48.404;9.498;2023-01-05T03:33:36;0.00;;;0.00;;
8401;SDS011;4238;48.404;9.498;2023-01-05T03:36:26;0.03;;;0.03;;
8401;SDS011;4238;48.404;9.498;2023-01-05T06:07:39;2.63;;;2.42;;
8401;SDS011;4238;48.404;9.498;2023-01-05T06:10:06;0.10;;;0.10;;
8401;SDS011;4238;48.404;9.498;2023-01-05T06:15:09;0.20;;;0.20;;
8401;SDS011;4238;48.404;9.498;2023-01-05T06:17:37;3.43;;;3.13;;
8401;SDS011;4238;48.404;9.498;2023-01-05T06:20:04;2.80;;;2.60;;
8401;SDS011;4238;48.404;9.498;2023-01-05T06:22:32;6.33;;;5.73;;
8401;SDS011;4238;48.404;9.498;2023-01-05T06:25:00;3.80;;;3.50;;
8401;SDS011;4238;48.404;9.498;2023-01-05T06:27:27;1.57;;;1.47;;
8401;SDS011;4238;48.404;9.498;2023-01-05T06:29:54;1.90;;;1.80;;
8401;SDS011;4238;48.404;9.498;2023-01-05T06:32:21;1.00;;;1.00;;
8401;SDS011;4238;48.404;9.498;2023-01-05T06:34:48;1.10;;;1.10;;
8401;SDS011;4238;48.404;9.498;2023-01-05T06:37:15;0.70;;;0.70;;
8401;SDS011;4238;48.404;9.498;2023-01-05T06:39:42;0.50;;;0.50;;
8401;SDS011;4238;48.404;9.498;2023-01-05T06:42:10;0.30;;;0.30;;
8401;SDS011;4238;48.404;9.498;2023-01-05T06:44:37;0.20;;;0.20;;
8401;SDS011;4238;48.404;9.498;2023-01-05T06:47:04;0.30;;;0.30;;
8401;SDS011;4238;48.404;9.498;2023-01-05T06:49:31;0.23;;;0.23;;
8401;SDS011;4238;48.404;9.498;2023-01-05T06:51:58;0.37;;;0.37;;
8401;SDS011;4238;48.404;9.498;2023-01-05T06:54:25;0.30;;;0.30;;
8401;SDS011;4238;48.404;9.498;2023-01-05T06:56:52;0.30;;;0.30;;
8401;SDS011;4238;48.404;9.498;2023-01-05T06:59:20;0.40;;;0.40;;
8401;SDS011;4238;48.404;9.498;2023-01-05T07:01:47;0.30;;;0.30;;
8401;SDS011;4238;48.404;9.498;2023-01-05T07:04:14;0.20;;;0.20;;
8401;SDS011;4238;48.404;9.498;2023-01-05T07:06:40;0.33;;;0.33;;
8401;SDS011;4238;48.404;9.498;2023-01-05T07:09:09;0.57;;;0.57;;
8401;SDS011;4238;48.404;9.498;2023-01-05T07:11:36;0.67;;;0.40;;
8401;SDS011;4238;48.404;9.498;2023-01-05T07:14:03;0.43;;;0.43;;
8401;SDS011;4238;48.404;9.498;2023-01-05T07:16:31;0.77;;;0.77;;
8401;SDS011;4238;48.404;9.498;2023-01-05T07:18:58;0.40;;;0.40;;
8401;SDS011;4238;48.404;9.498;2023-01-05T07:21:25;0.60;;;0.60;;
8401;SDS011;4238;48.404;9.498;2023-01-05T07:23:52;0.40;;;0.40;;
8401;SDS011;4238;48.404;9.498;2023-01-05T07:26:19;0.47;;;0.47;;
8401;SDS011;4238;48.404;9.498;2023-01-05T07:28:46;0.10;;;0.10;;
8401;SDS011;4238;48.404;9.498;2023-01-05T07:31:13;0.43;;;0.43;;
8401;SDS011;4238;48.404;9.498;2023-01-05T07:33:41;0.20;;;0.20;;
8401;SDS011;4238;48.404;9.498;2023-01-05T07:36:08;0.47;;;0.47;;
8401;SDS011;4238;48.404;9.498;2023-01-05T07:38:35;0.43;;;0.43;;
8401;SDS011;4238;48.404;9.498;2023-01-05T07:41:02;0.73;;;0.47;;
8401;SDS011;4238;48.404;9.498;2023-01-05T07:43:29;0.30;;;0.30;;
8401;SDS011;4238;48.404;9.498;2023-01-05T07:45:56;0.30;;;0.30;;
8401;SDS011;4238;48.404;9.498;2023-01-05T07:48:23;2.00;;;1.87;;
8401;SDS011;4238;48.404;9.498;2023-01-05T07:50:52;0.67;;;0.67;;
8401;SDS011;4238;48.404;9.498;2023-01-05T07:53:25;0.40;;;0.40;;
8401;SDS011;4238;48.404;9.498;2023-01-05T07:55:55;0.90;;;0.90;;
8401;SDS011;4238;48.404;9.498;2023-01-05T07:58:23;1.83;;;1.73;;
8401;SDS011;4238;48.404;9.498;2023-01-05T08:00:50;0.60;;;0.60;;
8401;SDS011;4238;48.404;9.498;2023-01-05T08:03:17;1.00;;;1.00;;
8401;SDS011;4238;48.404;9.498;2023-01-05T08:05:44;0.60;;;0.60;;
8401;SDS011;4238;48.404;9.498;2023-01-05T08:08:13;4.60;;;4.07;;
8401;SDS011;4238;48.404;9.498;2023-01-05T08:10:40;4.40;;;4.03;;
8401;SDS011;4238;48.404;9.498;2023-01-05T08:13:09;1.03;;;0.90;;
8401;SDS011;4238;48.404;9.498;2023-01-05T08:15:54;1.93;;;1.83;;
8401;SDS011;4238;48.404;9.498;2023-01-05T08:18:22;2.90;;;2.70;;
8401;SDS011;4238;48.404;9.498;2023-01-05T08:20:49;2.90;;;2.70;;
8401;SDS011;4238;48.404;9.498;2023-01-05T08:23:19;1.40;;;1.40;;
8401;SDS011;4238;48.404;9.498;2023-01-05T08:25:46;1.47;;;1.40;;
8401;SDS011;4238;48.404;9.498;2023-01-05T08:28:13;1.70;;;1.60;;
8401;SDS011;4238;48.404;9.498;2023-01-05T08:30:41;0.97;;;0.97;;
8401;SDS011;4238;48.404;9.498;2023-01-05T08:33:07;0.77;;;0.77;;
8401;SDS011;4238;48.404;9.498;2023-01-05T08:35:38;1.20;;;1.20;;
8401;SDS011;4238;48.404;9.498;2023-01-05T08:38:06;5.53;;;4.20;;
8401;SDS011;4238;48.404;9.498;2023-01-05T08:40:35;3.83;;;3.53;;
8401;SDS011;4238;48.404;9.498;2023-01-05T08:43:02;3.63;;;3.33;;
8401;SDS011;4238;48.404;9.498;2023-01-05T08:45:30;2.40;;;2.27;;
8401;SDS011;4238;48.404;9.498;2023-01-05T08:47:57;1.87;;;1.77;;
8401;SDS011;4238;48.404;9.498;2023-01-05T08:50:24;1.90;;;1.57;;
8401;SDS011;4238;48.404;9.498;2023-01-05T08:52:51;2.10;;;1.90;;
8401;SDS011;4238;48.404;9.498;2023-01-05T08:55:18;2.90;;;2.60;;
8401;SDS011;4238;48.404;9.498;2023-01-05T08:57:46;4.87;;;4.47;;
8401;SDS011;4238;48.404;9.498;2023-01-05T09:00:14;1.20;;;1.10;;
8401;SDS011;4238;48.404;9.498;2023-01-05T09:02:42;1.73;;;1.63;;
8401;SDS011;4238;48.404;9.498;2023-01-05T09:05:09;2.37;;;2.17;;
8401;SDS011;4238;48.404;9.498;2023-01-05T09:07:36;1.80;;;1.70;;
8401;SDS011;4238;48.404;9.498;2023-01-05T09:10:03;3.93;;;2.90;;
8401;SDS011;4238;48.404;9.498;2023-01-05T09:12:31;2.33;;;2.20;;
8401;SDS011;4238;48.404;9.498;2023-01-05T09:15:01;2.27;;;2.07;;
8401;SDS011;4238;48.404;9.498;2023-01-05T09:17:28;5.20;;;3.73;;
8401;SDS011;4238;48.404;9.498;2023-01-05T09:19:55;5.53;;;5.03;;
8401;SDS011;4238;48.404;9.498;2023-01-05T09:22:22;3.93;;;3.63;;
8401;SDS011;4238;48.404;9.498;2023-01-05T09:24:49;2.27;;;2.00;;
8401;SDS011;4238;48.404;9.498;2023-01-05T09:27:16;2.17;;;1.97;;
8401;SDS011;4238;48.404;9.498;2023-01-05T09:29:43;3.80;;;3.50;;
8401;SDS011;4238;48.404;9.498;2023-01-05T09:32:11;1.80;;;1.70;;
8401;SDS011;4238;48.404;9.498;2023-01-05T09:34:38;1.80;;;1.67;;
8401;SDS011;4238;48.404;9.498;2023-01-05T09:37:04;2.03;;;1.93;;
8401;SDS011;4238;48.404;9.498;2023-01-05T09:39:31;0.80;;;0.80;;
8401;SDS011;4238;48.404;9.498;2023-01-05T09:41:59;2.30;;;2.10;;
8401;SDS011;4238;48.404;9.498;2023-01-05T09:44:30;1.53;;;1.43;;
8401;SDS011;4238;48.404;9.498;2023-01-05T09:47:00;1.87;;;1.77;;
8401;SDS011;4238;48.404;9.498;2023-01-05T09:49:31;1.50;;;1.40;;
8401;SDS011;4238;48.404;9.498;2023-01-05T09:52:01;1.63;;;1.53;;
8401;SDS011;4238;48.404;9.498;2023-01-05T09:54:33;2.17;;;1.90;;
8401;SDS011;4238;48.404;9.498;2023-01-05T09:57:01;2.50;;;2.30;;
8401;SDS011;4238;48.404;9.498;2023-01-05T09:59:30;2.27;;;2.03;;
8401;SDS011;4238;48.404;9.498;2023-01-05T10:02:02;2.50;;;2.30;;
8401;SDS011;4238;48.404;9.498;2023-01-05T10:04:37;3.60;;;2.97;;
8401;SDS011;4238;48.404;9.498;2023-01-05T10:07:05;1.23;;;1.13;;
8401;SDS011;4238;48.404;9.498;2023-01-05T10:09:38;1.70;;;1.27;;
8401;SDS011;4238;48.404;9.498;2023-01-05T10:12:10;3.00;;;1.60;;
8401;SDS011;4238;48.404;9.498;2023-01-05T10:15:04;1.50;;;1.17;;
8401;SDS011;4238;48.404;9.498;2023-01-05T10:17:35;3.77;;;2.30;;
8401;SDS011;4238;48.404;9.498;2023-01-05T10:20:11;1.40;;;1.30;;
8401;SDS011;4238;48.404;9.498;2023-01-05T10:22:42;3.53;;;2.43;;
8401;SDS011;4238;48.404;9.498;2023-01-05T10:25:18;6.03;;;3.70;;
8401;SDS011;4238;48.404;9.498;2023-01-05T10:27:49;2.10;;;1.90;;
8401;SDS011;4238;48.404;9.498;2023-01-05T10:30:24;2.20;;;1.83;;
8401;SDS011;4238;48.404;9.498;2023-01-05T10:32:56;5.77;;;3.40;;
8401;SDS011;4238;48.404;9.498;2023-01-05T10:35:33;4.70;;;3.50;;
8401;SDS011;4238;48.404;9.498;2023-01-05T10:38:13;4.40;;;3.80;;
8401;SDS011;4238;48.404;9.498;2023-01-05T10:40:54;3.00;;;2.67;;
8401;SDS011;4238;48.404;9.498;2023-01-05T10:43:36;4.47;;;2.67;;
8401;SDS011;4238;48.404;9.498;2023-01-05T10:46:13;3.90;;;3.10;;
8401;SDS011;4238;48.404;9.498;2023-01-05T10:48:42;2.30;;;2.10;;
8401;SDS011;4238;48.404;9.498;2023-01-05T10:51:11;3.57;;;2.17;;
8401;SDS011;4238;48.404;9.498;2023-01-05T10:53:39;1.10;;;0.70;;
8401;SDS011;4238;48.404;9.498;2023-01-05T10:56:11;3.20;;;1.90;;
8401;SDS011;4238;48.404;9.498;2023-01-05T10:58:40;0.60;;;0.60;;
8401;SDS011;4238;48.404;9.498;2023-01-05T11:01:14;2.00;;;1.60;;
8401;SDS011;4238;48.404;9.498;2023-01-05T11:03:46;2.53;;;2.33;;
8401;SDS011;4238;48.404;9.498;2023-01-05T11:06:19;2.20;;;1.57;;
8401;SDS011;4238;48.404;9.498;2023-01-05T11:08:49;2.97;;;2.67;;
8401;SDS011;4238;48.404;9.498;2023-01-05T11:11:20;2.20;;;1.30;;
8401;SDS011;4238;48.404;9.498;2023-01-05T11:13:48;1.57;;;1.33;;
8401;SDS011;4238;48.404;9.498;2023-01-05T11:16:18;1.63;;;0.90;;
8401;SDS011;4238;48.404;9.498;2023-01-05T11:18:48;1.60;;;1.17;;
8401;SDS011;4238;48.404;9.498;2023-01-05T11:21:19;1.77;;;1.67;;
8401;SDS011;4238;48.404;9.498;2023-01-05T11:23:48;1.67;;;1.57;;
8401;SDS011;4238;48.404;9.498;2023-01-05T11:26:19;2.63;;;1.70;;
8401;SDS011;4238;48.404;9.498;2023-01-05T11:28:59;2.17;;;2.07;;
8401;SDS011;4238;48.404;9.498;2023-01-05T11:31:36;1.83;;;1.73;;
8401;SDS011;4238;48.404;9.498;2023-01-05T11:34:07;4.43;;;3.77;;
8401;SDS011;4238;48.404;9.498;2023-01-05T11:36:42;5.03;;;3.00;;
8401;SDS011;4238;48.404;9.498;2023-01-05T11:39:18;3.20;;;2.93;;
8401;SDS011;4238;48.404;9.498;2023-01-05T11:42:03;2.90;;;2.17;;
8401;SDS011;4238;48.404;9.498;2023-01-05T11:44:41;5.83;;;3.03;;
8401;SDS011;4238;48.404;9.498;2023-01-05T11:47:16;3.73;;;2.40;;
8401;SDS011;4238;48.404;9.498;2023-01-05T11:49:55;4.80;;;3.33;;
8401;SDS011;4238;48.404;9.498;2023-01-05T11:52:33;3.83;;;2.60;;
8401;SDS011;4238;48.404;9.498;2023-01-05T11:58:12;3.40;;;3.10;;
8401;SDS011;4238;48.404;9.498;2023-01-05T12:03:59;6.90;;;4.83;;
8401;SDS011;4238;48.404;9.498;2023-01-05T12:06:33;5.70;;;4.27;;
8401;SDS011;4238;48.404;9.498;2023-01-05T12:09:18;6.33;;;4.30;;
8401;SDS011;4238;48.404;9.498;2023-01-05T12:11:51;4.87;;;4.07;;
8401;SDS011;4238;48.404;9.498;2023-01-05T12:14:33;5.73;;;3.50;;
8401;SDS011;4238;48.404;9.498;2023-01-05T12:17:13;5.70;;;4.63;;
8401;SDS011;4238;48.404;9.498;2023-01-05T12:19:47;7.73;;;4.57;;
8401;SDS011;4238;48.404;9.498;2023-01-05T12:22:33;8.23;;;5.20;;
8401;SDS011;4238;48.404;9.498;2023-01-05T12:25:21;5.07;;;2.13;;
8401;SDS011;4238;48.404;9.498;2023-01-05T12:28:11;5.03;;;2.83;;
8401;SDS011;4238;48.404;9.498;2023-01-05T12:31:09;3.57;;;2.17;;
8401;SDS011;4238;48.404;9.498;2023-01-05T12:34:11;3.60;;;2.23;;
8401;SDS011;4238;48.404;9.498;2023-01-05T12:36:55;2.20;;;2.00;;
8401;SDS011;4238;48.404;9.498;2023-01-05T12:42:36;2.93;;;1.83;;
8401;SDS011;4238;48.404;9.498;2023-01-05T12:45:28;2.33;;;1.80;;
8401;SDS011;4238;48.404;9.498;2023-01-05T12:48:17;2.50;;;2.07;;
8401;SDS011;4238;48.404;9.498;2023-01-05T12:50:51;5.47;;;2.53;;
8401;SDS011;4238;48.404;9.498;2023-01-05T12:53:27;3.60;;;2.97;;
8401;SDS011;4238;48.404;9.498;2023-01-05T12:56:07;3.83;;;2.67;;
8401;SDS011;4238;48.404;9.498;2023-01-05T12:58:43;5.67;;;2.90;;
8401;SDS011;4238;48.404;9.498;2023-01-05T13:01:15;4.97;;;4.17;;
8401;SDS011;4238;48.404;9.498;2023-01-05T13:03:47;4.70;;;3.93;;
8401;SDS011;4238;48.404;9.498;2023-01-05T13:06:19;2.73;;;2.50;;
8401;SDS011;4238;48.404;9.498;2023-01-05T13:08:49;5.10;;;2.83;;
8401;SDS011;4238;48.404;9.498;2023-01-05T13:11:21;3.80;;;2.30;;
8401;SDS011;4238;48.404;9.498;2023-01-05T13:13:54;3.83;;;2.00;;
8401;SDS011;4238;48.404;9.498;2023-01-05T13:16:23;4.17;;;2.90;;
8401;SDS011;4238;48.404;9.498;2023-01-05T13:18:54;5.43;;;3.20;;
8401;SDS011;4238;48.404;9.498;2023-01-05T13:21:27;3.13;;;1.87;;
8401;SDS011;4238;48.404;9.498;2023-01-05T13:23:56;13.17;;;8.70;;
8401;SDS011;4238;48.404;9.498;2023-01-05T13:26:27;9.77;;;7.33;;
8401;SDS011;4238;48.404;9.498;2023-01-05T13:28:56;9.73;;;8.20;;
8401;SDS011;4238;48.404;9.498;2023-01-05T13:31:29;13.90;;;8.57;;
8401;SDS011;4238;48.404;9.498;2023-01-05T13:46:29;6.77;;;3.53;;
8401;SDS011;4238;48.404;9.498;2023-01-05T13:49:31;6.60;;;2.70;;
8401;SDS011;4238;48.404;9.498;2023-01-05T13:52:19;4.10;;;2.93;;
8401;SDS011;4238;48.404;9.498;2023-01-05T13:54:53;4.40;;;3.23;;
8401;SDS011;4238;48.404;9.498;2023-01-05T13:57:26;6.30;;;5.00;;
8401;SDS011;4238;48.404;9.498;2023-01-05T13:59:55;6.27;;;2.20;;
8401;SDS011;4238;48.404;9.498;2023-01-05T14:02:27;5.70;;;3.70;;
8401;SDS011;4238;48.404;9.498;2023-01-05T14:04:56;3.17;;;2.60;;
8401;SDS011;4238;48.404;9.498;2023-01-05T14:07:24;3.57;;;2.07;;
8401;SDS011;4238;48.404;9.498;2023-01-05T14:09:52;3.20;;;2.00;;
8401;SDS011;4238;48.404;9.498;2023-01-05T14:12:22;4.53;;;1.70;;
8401;SDS011;4238;48.404;9.498;2023-01-05T14:15:00;2.10;;;1.90;;
8401;SDS011;4238;48.404;9.498;2023-01-05T14:20:28;3.17;;;2.37;;
8401;SDS011;4238;48.404;9.498;2023-01-05T14:26:14;4.50;;;1.77;;
8401;SDS011;4238;48.404;9.498;2023-01-05T14:28:42;1.70;;;1.60;;
8401;SDS011;4238;48.404;9.498;2023-01-05T14:34:18;3.90;;;2.47;;
8401;SDS011;4238;48.404;9.498;2023-01-05T14:36:50;3.60;;;2.40;;
8401;SDS011;4238;48.404;9.498;2023-01-05T14:39:28;2.30;;;2.10;;
8401;SDS011;4238;48.404;9.498;2023-01-05T14:42:02;3.13;;;2.00;;
8401;SDS011;4238;48.404;9.498;2023-01-05T14:44:33;4.07;;;2.50;;
8401;SDS011;4238;48.404;9.498;2023-01-05T14:47:02;2.30;;;1.60;;
8401;SDS011;4238;48.404;9.498;2023-01-05T14:49:33;4.33;;;1.97;;
8401;SDS011;4238;48.404;9.498;2023-01-05T14:52:03;3.63;;;2.10;;
8401;SDS011;4238;48.404;9.498;2023-01-05T14:54:35;6.13;;;2.43;;
8401;SDS011;4238;48.404;9.498;2023-01-05T14:57:37;2.03;;;1.73;;
8401;SDS011;4238;48.404;9.498;2023-01-05T15:00:14;4.47;;;2.37;;
8401;SDS011;4238;48.404;9.498;2023-01-05T15:02:49;3.77;;;2.60;;
8401;SDS011;4238;48.404;9.498;2023-01-05T15:05:22;2.93;;;2.57;;
8401;SDS011;4238;48.404;9.498;2023-01-05T15:07:52;3.33;;;2.47;;
8401;SDS011;4238;48.404;9.498;2023-01-05T15:13:36;4.53;;;3.10;;
8401;SDS011;4238;48.404;9.498;2023-01-05T15:19:55;5.20;;;3.13;;
8401;SDS011;4238;48.404;9.498;2023-01-05T15:23:00;4.23;;;3.83;;
8401;SDS011;4238;48.404;9.498;2023-01-05T15:25:45;4.30;;;2.70;;
8401;SDS011;4238;48.404;9.498;2023-01-05T15:28:31;5.13;;;3.30;;
8401;SDS011;4238;48.404;9.498;2023-01-05T15:31:28;10.17;;;4.03;;
8401;SDS011;4238;48.404;9.498;2023-01-05T15:34:00;5.00;;;3.77;;
8401;SDS011;4238;48.404;9.498;2023-01-05T15:36:38;6.23;;;3.73;;
8401;SDS011;4238;48.404;9.498;2023-01-05T15:39:23;5.20;;;3.10;;
8401;SDS011;4238;48.404;9.498;2023-01-05T15:41:52;5.97;;;3.93;;
8401;SDS011;4238;48.404;9.498;2023-01-05T15:44:22;10.80;;;6.83;;
8401;SDS011;4238;48.404;9.498;2023-01-05T15:46:51;6.53;;;4.40;;
8401;SDS011;4238;48.404;9.498;2023-01-05T15:49:21;7.20;;;5.10;;
8401;SDS011;4238;48.404;9.498;2023-01-05T15:51:50;6.87;;;4.70;;
8401;SDS011;4238;48.404;9.498;2023-01-05T15:54:19;5.27;;;3.20;;
8401;SDS011;4238;48.404;9.498;2023-01-05T15:56:49;5.30;;;3.97;;
8401;SDS011;4238;48.404;9.498;2023-01-05T15:59:18;7.67;;;4.83;;
8401;SDS011;4238;48.404;9.498;2023-01-05T16:01:47;7.33;;;4.40;;
8401;SDS011;4238;48.404;9.498;2023-01-05T16:04:14;8.93;;;5.67;;
8401;SDS011;4238;48.404;9.498;2023-01-05T16:06:43;10.67;;;6.20;;
8401;SDS011;4238;48.404;9.498;2023-01-05T16:09:17;6.43;;;5.63;;
8401;SDS011;4238;48.404;9.498;2023-01-05T16:11:49;5.60;;;4.97;;
8401;SDS011;4238;48.404;9.498;2023-01-05T16:14:21;19.10;;;13.60;;
8401;SDS011;4238;48.404;9.498;2023-01-05T16:16:53;7.77;;;5.47;;
8401;SDS011;4238;48.404;9.498;2023-01-05T16:19:26;3.87;;;2.97;;
8401;SDS011;4238;48.404;9.498;2023-01-05T16:21:59;4.87;;;3.10;;
8401;SDS011;4238;48.404;9.498;2023-01-05T16:24:31;4.17;;;2.97;;
8401;SDS011;4238;48.404;9.498;2023-01-05T16:27:04;3.73;;;2.40;;
8401;SDS011;4238;48.404;9.498;2023-01-05T16:29:35;9.73;;;3.80;;
8401;SDS011;4238;48.404;9.498;2023-01-05T16:32:04;6.30;;;4.60;;
8401;SDS011;4238;48.404;9.498;2023-01-05T16:34:50;5.07;;;2.93;;
8401;SDS011;4238;48.404;9.498;2023-01-05T16:37:37;6.33;;;4.47;;
8401;SDS011;4238;48.404;9.498;2023-01-05T16:40:04;6.60;;;4.60;;
8401;SDS011;4238;48.404;9.498;2023-01-05T16:42:47;3.67;;;2.70;;
8401;SDS011;4238;48.404;9.498;2023-01-05T16:45:17;3.60;;;2.90;;
8401;SDS011;4238;48.404;9.498;2023-01-05T16:47:46;6.50;;;4.60;;
8401;SDS011;4238;48.404;9.498;2023-01-05T16:53:23;6.93;;;5.00;;
8401;SDS011;4238;48.404;9.498;2023-01-05T16:55:50;5.07;;;3.80;;
8401;SDS011;4238;48.404;9.498;2023-01-05T16:58:41;6.57;;;3.83;;
8401;SDS011;4238;48.404;9.498;2023-01-05T17:01:15;9.57;;;4.87;;
8401;SDS011;4238;48.404;9.498;2023-01-05T17:03:47;3.83;;;3.47;;
8401;SDS011;4238;48.404;9.498;2023-01-05T17:06:18;7.57;;;5.30;;
8401;SDS011;4238;48.404;9.498;2023-01-05T17:08:56;5.50;;;4.20;;
8401;SDS011;4238;48.404;9.498;2023-01-05T17:11:26;7.67;;;5.40;;
8401;SDS011;4238;48.404;9.498;2023-01-05T17:14:01;8.17;;;5.77;;
8401;SDS011;4238;48.404;9.498;2023-01-05T17:16:29;14.13;;;9.00;;
8401;SDS011;4238;48.404;9.498;2023-01-05T17:18:58;11.13;;;6.30;;
8401;SDS011;4238;48.404;9.498;2023-01-05T17:21:25;4.10;;;3.37;;
8401;SDS011;4238;48.404;9.498;2023-01-05T17:23:56;4.53;;;2.53;;
8401;SDS011;4238;48.404;9.498;2023-01-05T17:26:26;2.80;;;2.00;;
8401;SDS011;4238;48.404;9.498;2023-01-05T17:28:56;3.70;;;2.73;;
8401;SDS011;4238;48.404;9.498;2023-01-05T17:31:25;5.07;;;2.40;;
8401;SDS011;4238;48.404;9.498;2023-01-05T17:33:52;4.17;;;2.30;;
8401;SDS011;4238;48.404;9.498;2023-01-05T17:36:20;1.90;;;1.80;;
8401;SDS011;4238;48.404;9.498;2023-01-05T17:38:54;2.40;;;2.17;;
8401;SDS011;4238;48.404;9.498;2023-01-05T17:41:21;3.43;;;2.30;;
8401;SDS011;4238;48.404;9.498;2023-01-05T17:43:48;2.10;;;1.93;;
8401;SDS011;4238;48.404;9.498;2023-01-05T17:46:17;1.80;;;1.47;;
8401;SDS011;4238;48.404;9.498;2023-01-05T17:48:46;2.73;;;1.87;;
8401;SDS011;4238;48.404;9.498;2023-01-05T17:51:13;1.93;;;1.83;;
8401;SDS011;4238;48.404;9.498;2023-01-05T17:53:40;1.83;;;1.73;;
8401;SDS011;4238;48.404;9.498;2023-01-05T17:56:07;1.87;;;1.70;;
8401;SDS011;4238;48.404;9.498;2023-01-05T17:58:34;1.50;;;1.40;;
8401;SDS011;4238;48.404;9.498;2023-01-05T18:01:02;1.73;;;1.63;;
8401;SDS011;4238;48.404;9.498;2023-01-05T18:03:30;2.47;;;1.63;;
8401;SDS011;4238;48.404;9.498;2023-01-05T18:05:59;1.77;;;1.63;;
8401;SDS011;4238;48.404;9.498;2023-01-05T18:08:27;1.57;;;1.47;;
8401;SDS011;4238;48.404;9.498;2023-01-05T18:10:54;3.17;;;1.80;;
8401;SDS011;4238;48.404;9.498;2023-01-05T18:13:21;6.70;;;5.07;;
8401;SDS011;4238;48.404;9.498;2023-01-05T18:15:48;19.20;;;10.53;;
8401;SDS011;4238;48.404;9.498;2023-01-05T18:18:16;2.57;;;2.30;;
8401;SDS011;4238;48.404;9.498;2023-01-05T18:20:45;3.13;;;2.83;;
8401;SDS011;4238;48.404;9.498;2023-01-05T18:23:16;3.17;;;2.43;;
8401;SDS011;4238;48.404;9.498;2023-01-05T18:25:43;1.83;;;1.73;;
8401;SDS011;4238;48.404;9.498;2023-01-05T18:28:11;1.80;;;1.70;;
8401;SDS011;4238;48.404;9.498;2023-01-05T18:30:39;4.90;;;3.60;;
8401;SDS011;4238;48.404;9.498;2023-01-05T18:33:06;5.37;;;2.90;;
8401;SDS011;4238;48.404;9.498;2023-01-05T18:35:33;2.73;;;1.77;;
8401;SDS011;4238;48.404;9.498;2023-01-05T18:38:00;2.40;;;2.20;;
8401;SDS011;4238;48.404;9.498;2023-01-05T18:40:30;2.57;;;2.37;;
8401;SDS011;4238;48.404;9.498;2023-01-05T18:42:57;2.10;;;1.90;;
8401;SDS011;4238;48.404;9.498;2023-01-05T18:45:24;2.00;;;1.90;;
8401;SDS011;4238;48.404;9.498;2023-01-05T18:47:53;2.07;;;1.70;;
8401;SDS011;4238;48.404;9.498;2023-01-05T18:50:21;4.23;;;2.63;;
8401;SDS011;4238;48.404;9.498;2023-01-05T18:52:48;2.27;;;2.10;;
8401;SDS011;4238;48.404;9.498;2023-01-05T18:55:15;2.70;;;2.30;;
8401;SDS011;4238;48.404;9.498;2023-01-05T18:57:43;2.43;;;2.23;;
8401;SDS011;4238;48.404;9.498;2023-01-05T19:00:11;2.70;;;2.50;;
8401;SDS011;4238;48.404;9.498;2023-01-05T19:02:39;2.97;;;1.73;;